Time;durP1;ratioP1;P1;durP2;ratioP2;P2;SDS_P1;SDS_P2;PMS_P1;PMS_P2;Temp;Humidity;BMP_temperature;BMP_pressure;BME280_temperature;BME280_humidity;BME280_pressure;Samples;Min_cycle;Max_cycle;Signal;HPM_P1;HPM_P2
2023/06/18 00:01:00;;;;;;;10.10;9.30;;;19.20;99.90;;;;;;5113187;28;20176;-55
2023/06/18 00:03:26;;;;;;;11.70;10.70;;;19.10;99.90;;;;;;5112400;28;20652;-56
2023/06/18 00:05:53;;;;;;;11.10;10.10;;;19.10;99.90;;;;;;5112554;28;20191;-55
2023/06/18 00:08:19;;;;;;;11.50;10.47;;;19.10;99.90;;;;;;5112971;28;20183;-57
2023/06/18 00:10:45;;;;;;;11.67;10.63;;;19.20;99.90;;;;;;5113852;28;20918;-54
2023/06/18 00:13:11;;;;;;;10.40;9.50;;;19.10;99.90;;;;;;5114118;28;20590;-58
2023/06/18 00:15:36;;;;;;;10.47;9.57;;;19.10;99.90;;;;;;5113483;28;20208;-56
2023/06/18 00:18:02;;;;;;;11.57;10.67;;;19.10;99.90;;;;;;5113447;28;20445;-55
2023/06/18 00:20:28;;;;;;;11.10;10.20;;;19.10;99.90;;;;;;5113507;28;20267;-58
2023/06/18 00:22:53;;;;;;;11.53;10.57;;;19.10;99.90;;;;;;5113165;28;20778;-54
2023/06/18 00:25:19;;;;;;;12.10;10.97;;;19.10;99.90;;;;;;5114135;28;20187;-53
2023/06/18 00:27:46;;;;;;;12.00;11.00;;;19.00;99.90;;;;;;5114140;28;20239;-57
2023/06/18 00:30:13;;;;;;;10.80;9.90;;;19.00;99.90;;;;;;5095379;28;20475;-53
2023/06/18 00:32:41;;;;;;;10.70;9.80;;;18.90;99.90;;;;;;5113372;28;20420;-52
2023/06/18 00:35:07;;;;;;;11.27;10.37;;;18.90;99.90;;;;;;5113614;28;20781;-54
2023/06/18 00:37:33;;;;;;;11.03;10.10;;;18.90;99.90;;;;;;5113912;28;20528;-54
2023/06/18 00:39:58;;;;;;;10.83;9.90;;;18.80;99.90;;;;;;5113167;28;20259;-54
2023/06/18 00:42:24;;;;;;;12.10;10.90;;;18.80;99.90;;;;;;5113073;28;20464;-56
2023/06/18 00:44:49;;;;;;;11.40;10.50;;;18.80;99.90;;;;;;5113768;28;20176;-55
2023/06/18 00:47:17;;;;;;;10.60;9.63;;;18.80;99.90;;;;;;5114358;28;20191;-56
2023/06/18 00:49:43;;;;;;;11.37;10.27;;;18.80;99.90;;;;;;5115032;28;20323;-56
2023/06/18 00:52:14;;;;;;;12.60;10.83;;;18.80;99.90;;;;;;5114905;28;20783;-54
2023/06/18 00:54:46;;;;;;;11.83;10.87;;;18.80;99.90;;;;;;5115982;28;20781;-56
2023/06/18 00:57:14;;;;;;;10.30;9.50;;;18.70;99.90;;;;;;5079835;28;20420;-55
2023/06/18 00:59:42;;;;;;;11.87;10.67;;;18.70;99.90;;;;;;5097118;28;20433;-55
2023/06/18 01:02:08;;;;;;;11.73;10.73;;;18.70;99.90;;;;;;5099681;28;20715;-56
2023/06/18 01:04:36;;;;;;;12.20;11.00;;;18.70;99.90;;;;;;5099710;28;20429;-54
2023/06/18 01:07:02;;;;;;;11.40;10.40;;;18.70;99.90;;;;;;5119162;28;20470;-57
2023/06/18 01:09:29;;;;;;;11.10;9.80;;;18.70;99.90;;;;;;5099747;28;20847;-56
2023/06/18 01:11:55;;;;;;;12.63;11.63;;;18.70;99.90;;;;;;5100267;28;20521;-56
2023/06/18 01:14:22;;;;;;;12.00;10.90;;;18.70;99.90;;;;;;5100834;28;20536;-57
2023/06/18 01:16:49;;;;;;;11.50;10.47;;;18.70;99.90;;;;;;5118461;28;20496;-56
2023/06/18 01:19:43;;;;;;;12.10;11.10;;;18.70;99.90;;;;;;5119016;28;20454;-56
2023/06/18 01:22:26;;;;;;;12.17;10.97;;;18.60;99.90;;;;;;5108651;28;20502;-54
2023/06/18 01:24:56;;;;;;;11.37;10.37;;;18.50;99.90;;;;;;5117789;28;20453;-54
2023/06/18 01:27:23;;;;;;;11.27;10.30;;;18.50;99.90;;;;;;5098864;28;20402;-55
2023/06/18 01:29:51;;;;;;;12.73;11.63;;;18.50;99.90;;;;;;5117213;28;20567;-56
2023/06/18 01:32:17;;;;;;;12.40;11.30;;;18.50;99.90;;;;;;5098931;28;20430;-56
2023/06/18 01:34:43;;;;;;;12.23;11.13;;;18.40;99.90;;;;;;5117867;28;20525;-55
2023/06/18 01:37:18;;;;;;;12.70;11.60;;;18.40;99.90;;;;;;5118027;28;20698;-54
2023/06/18 01:39:54;;;;;;;12.30;11.30;;;18.40;1.00;;;;;;5096043;28;20497;-57
2023/06/18 01:42:21;;;;;;;12.40;11.37;;;18.40;99.90;;;;;;5096034;28;20428;-55
2023/06/18 01:44:56;;;;;;;12.20;11.10;;;18.40;99.90;;;;;;5096927;28;20875;-56
2023/06/18 01:47:26;;;;;;;11.53;10.60;;;18.40;99.90;;;;;;5095990;28;20426;-55
2023/06/18 01:49:54;;;;;;;14.63;12.33;;;18.30;99.90;;;;;;5094625;28;20430;-55
2023/06/18 01:52:20;;;;;;;11.93;10.90;;;18.30;99.90;;;;;;5096090;28;20811;-54
2023/06/18 01:54:47;;;;;;;11.50;10.50;;;18.30;99.90;;;;;;5094795;28;20426;-54
2023/06/18 01:57:14;;;;;;;13.10;12.03;;;18.30;1.00;;;;;;5094532;28;20718;-57
2023/06/18 01:59:43;;;;;;;12.77;11.70;;;18.30;1.00;;;;;;5095926;28;20427;-56
2023/06/18 02:02:09;;;;;;;11.83;10.83;;;18.30;1.00;;;;;;5097241;28;20639;-56
2023/06/18 02:04:35;;;;;;;13.00;11.90;;;18.20;1.00;;;;;;5096852;28;20434;-55
2023/06/18 02:07:01;;;;;;;14.50;13.10;;;18.20;1.00;;;;;;5097099;28;20422;-56
2023/06/18 02:09:27;;;;;;;13.47;12.17;;;18.20;1.00;;;;;;5094772;28;20421;-54
2023/06/18 02:11:52;;;;;;;12.23;11.03;;;18.20;1.00;;;;;;5096211;28;20184;-54
2023/06/18 02:14:18;;;;;;;13.27;12.07;;;18.20;1.00;;;;;;5096964;28;20176;-54
2023/06/18 02:16:44;;;;;;;13.03;11.83;;;18.20;1.00;;;;;;5096774;28;20207;-56
2023/06/18 02:19:10;;;;;;;13.93;12.63;;;18.10;1.00;;;;;;5096763;28;20180;-54
2023/06/18 02:21:35;;;;;;;13.53;12.33;;;18.20;1.00;;;;;;5096875;28;20589;-55
2023/06/18 02:24:01;;;;;;;12.73;11.53;;;18.20;1.00;;;;;;5096563;28;20411;-57
2023/06/18 02:26:27;;;;;;;12.87;11.87;;;18.10;1.00;;;;;;5097182;28;20279;-53
2023/06/18 02:28:53;;;;;;;13.87;12.67;;;18.10;1.00;;;;;;5097059;28;20177;-54
2023/06/18 02:31:18;;;;;;;12.50;11.30;;;18.10;1.00;;;;;;5096961;28;20491;-57
2023/06/18 02:33:44;;;;;;;13.37;12.17;;;18.10;1.00;;;;;;5096784;28;20197;-56
2023/06/18 02:36:10;;;;;;;13.60;12.30;;;18.10;1.00;;;;;;5096599;28;20547;-56
2023/06/18 02:38:35;;;;;;;13.80;12.50;;;18.00;1.00;;;;;;5096798;28;20604;-56
2023/06/18 02:41:01;;;;;;;14.00;12.80;;;18.00;1.00;;;;;;5113500;28;20232;-57
2023/06/18 02:43:30;;;;;;;14.50;13.20;;;18.00;1.00;;;;;;5117400;28;20430;-54
2023/06/18 02:45:56;;;;;;;12.60;11.50;;;18.00;1.00;;;;;;5117527;28;20557;-56
2023/06/18 02:48:22;;;;;;;13.17;11.97;;;18.00;1.00;;;;;;5117275;28;20416;-55
2023/06/18 02:50:47;;;;;;;14.60;13.30;;;17.90;1.00;;;;;;5099149;28;20851;-55
2023/06/18 02:53:13;;;;;;;13.57;12.43;;;17.90;1.00;;;;;;5099435;28;20207;-55
2023/06/18 02:55:41;;;;;;;12.27;11.27;;;17.90;1.00;;;;;;5117372;28;20298;-56
2023/06/18 02:58:16;;;;;;;13.30;12.10;;;17.90;1.00;;;;;;5116910;28;20168;-53
2023/06/18 03:00:42;;;;;;;12.27;11.23;;;18.00;1.00;;;;;;5117388;28;20844;-52
2023/06/18 03:03:07;;;;;;;12.00;10.90;;;17.90;1.00;;;;;;5116693;28;20406;-53
2023/06/18 03:05:33;;;;;;;13.43;12.33;;;17.90;1.00;;;;;;5117444;28;20199;-53
2023/06/18 03:07:59;;;;;;;12.80;11.73;;;17.90;1.00;;;;;;5116988;28;20180;-53
2023/06/18 03:10:24;;;;;;;13.13;12.03;;;17.80;1.00;;;;;;5117011;28;20312;-53
2023/06/18 03:12:50;;;;;;;12.03;10.97;;;17.80;1.00;;;;;;5116326;28;20291;-53
2023/06/18 03:15:15;;;;;;;13.37;12.17;;;17.80;1.00;;;;;;5116703;28;20195;-56
2023/06/18 03:17:41;;;;;;;13.13;12.00;;;17.80;1.00;;;;;;5115865;28;20195;-57
2023/06/18 03:20:07;;;;;;;13.30;12.03;;;17.80;1.00;;;;;;5116926;28;20495;-55
2023/06/18 03:22:32;;;;;;;12.67;11.57;;;17.80;1.00;;;;;;5116556;28;20196;-56
2023/06/18 03:25:00;;;;;;;13.60;12.40;;;17.80;1.00;;;;;;5116758;28;20425;-55
2023/06/18 03:27:25;;;;;;;12.37;11.23;;;17.80;1.00;;;;;;5117393;28;20183;-57
2023/06/18 03:29:51;;;;;;;12.77;11.57;;;17.80;1.00;;;;;;5116463;28;20981;-53
2023/06/18 03:32:19;;;;;;;13.63;12.53;;;17.80;1.00;;;;;;5116987;28;20175;-52
2023/06/18 03:34:48;;;;;;;13.87;12.57;;;17.70;1.00;;;;;;5116608;28;20627;-53
2023/06/18 03:37:14;;;;;;;13.70;12.40;;;17.80;1.00;;;;;;5116059;28;20593;-57
2023/06/18 03:39:40;;;;;;;12.10;11.10;;;17.80;1.00;;;;;;5116407;28;20564;-57
2023/06/18 03:42:06;;;;;;;13.90;12.70;;;17.80;1.00;;;;;;5116588;28;20471;-56
2023/06/18 03:44:31;;;;;;;13.33;12.13;;;17.80;1.00;;;;;;5116318;28;20168;-56
2023/06/18 03:46:57;;;;;;;12.83;11.70;;;17.90;1.00;;;;;;5117246;28;20172;-45
2023/06/18 03:49:22;;;;;;;13.20;12.10;;;17.90;1.00;;;;;;5099511;28;20203;-44
2023/06/18 03:51:48;;;;;;;13.50;12.33;;;17.80;1.00;;;;;;5117113;28;20183;-43
2023/06/18 03:54:14;;;;;;;15.00;13.53;;;17.60;1.00;;;;;;5099203;28;20535;-47
2023/06/18 03:56:39;;;;;;;13.73;12.40;;;17.40;1.00;;;;;;5118022;28;20230;-42
2023/06/18 03:59:06;;;;;;;14.10;12.93;;;17.20;1.00;;;;;;5116954;28;20513;-42
2023/06/18 04:01:31;;;;;;;15.20;13.70;;;17.00;1.00;;;;;;5117387;28;20194;-42
2023/06/18 04:03:57;;;;;;;13.73;12.43;;;16.90;1.00;;;;;;5116699;28;21050;-43
2023/06/18 04:06:22;;;;;;;13.40;12.20;;;16.80;1.00;;;;;;5098586;28;20168;-43
2023/06/18 04:08:48;;;;;;;12.37;11.27;;;16.70;1.00;;;;;;5117271;28;20426;-44
2023/06/18 04:11:14;;;;;;;12.70;11.60;;;16.70;1.00;;;;;;5117394;28;20175;-42
2023/06/18 04:13:40;;;;;;;14.50;13.10;;;16.60;1.00;;;;;;5117153;28;20179;-45
2023/06/18 04:16:06;;;;;;;13.23;12.03;;;16.60;1.00;;;;;;5116870;28;20237;-42
2023/06/18 04:18:31;;;;;;;13.70;12.50;;;16.60;1.00;;;;;;5116365;28;20815;-44
2023/06/18 04:20:57;;;;;;;15.33;13.93;;;16.60;1.00;;;;;;5116866;28;20236;-42
2023/06/18 04:23:23;;;;;;;13.90;12.57;;;16.60;1.00;;;;;;5116952;28;20176;-43
2023/06/18 04:25:48;;;;;;;13.87;12.67;;;16.60;1.00;;;;;;5117188;28;20184;-42
2023/06/18 04:28:14;;;;;;;13.03;11.93;;;16.70;1.00;;;;;;5116885;28;20536;-43
2023/06/18 04:30:40;;;;;;;12.90;11.90;;;16.70;1.00;;;;;;5116957;28;20184;-41
2023/06/18 04:33:06;;;;;;;12.87;11.80;;;16.70;1.00;;;;;;5115396;28;20288;-41
2023/06/18 04:35:32;;;;;;;13.37;12.17;;;16.70;1.00;;;;;;5118060;28;20552;-44
2023/06/18 04:37:57;;;;;;;14.80;13.30;;;16.80;1.00;;;;;;5120565;28;20183;-44
2023/06/18 04:40:23;;;;;;;14.73;13.43;;;16.80;1.00;;;;;;5119566;28;20469;-44
2023/06/18 04:42:49;;;;;;;14.17;12.97;;;16.80;1.00;;;;;;5119733;28;20291;-42
2023/06/18 04:45:14;;;;;;;13.57;12.47;;;16.90;1.00;;;;;;5118296;28;20815;-42
2023/06/18 04:47:40;;;;;;;12.13;11.07;;;16.90;1.00;;;;;;5119171;28;20168;-42
2023/06/18 04:50:07;;;;;;;12.60;11.50;;;16.80;1.00;;;;;;5100855;28;20176;-41
2023/06/18 04:52:33;;;;;;;11.73;10.73;;;16.80;1.00;;;;;;5119243;28;21029;-42
2023/06/18 04:54:58;;;;;;;12.70;11.50;;;16.80;1.00;;;;;;5118840;28;20469;-41
2023/06/18 04:57:24;;;;;;;12.60;11.53;;;16.90;1.00;;;;;;5118563;28;20179;-41
2023/06/18 04:59:50;;;;;;;12.57;11.47;;;16.90;1.00;;;;;;5118906;28;20270;-42
2023/06/18 05:02:16;;;;;;;13.07;11.87;;;16.90;1.00;;;;;;5100133;28;20421;-42
2023/06/18 05:04:42;;;;;;;13.43;12.33;;;16.90;1.00;;;;;;5118540;28;20234;-43
2023/06/18 05:07:08;;;;;;;13.00;11.80;;;16.80;1.00;;;;;;5119097;28;20421;-42
2023/06/18 05:09:33;;;;;;;11.87;10.87;;;16.80;1.00;;;;;;5118208;28;20188;-42
2023/06/18 05:11:59;;;;;;;12.70;11.33;;;16.90;1.00;;;;;;5116210;28;20217;-40
2023/06/18 05:14:25;;;;;;;13.17;12.00;;;17.00;1.00;;;;;;5115582;28;20179;-43
2023/06/18 05:16:51;;;;;;;13.10;11.90;;;17.10;1.00;;;;;;5115485;28;20619;-42
2023/06/18 05:19:17;;;;;;;13.30;12.10;;;17.20;1.00;;;;;;5116068;28;20429;-41
2023/06/18 05:21:42;;;;;;;12.30;11.30;;;17.30;1.00;;;;;;5115419;28;20190;-41
2023/06/18 05:24:08;;;;;;;11.63;10.53;;;17.40;1.00;;;;;;5115938;28;20175;-40
2023/06/18 05:26:37;;;;;;;13.13;11.93;;;17.60;1.00;;;;;;5116908;28;20561;-42
2023/06/18 05:29:02;;;;;;;12.80;11.60;;;17.70;1.00;;;;;;5116758;28;20266;-41
2023/06/18 05:31:28;;;;;;;11.67;10.63;;;17.80;1.00;;;;;;5117762;28;20532;-42
2023/06/18 05:33:54;;;;;;;12.93;11.70;;;18.00;1.00;;;;;;5099217;28;20171;-43
2023/06/18 05:36:22;;;;;;;12.90;11.80;;;18.20;1.00;;;;;;5117044;28;20207;-40
2023/06/18 05:38:48;;;;;;;12.00;11.10;;;18.40;1.00;;;;;;5117650;28;20478;-42
2023/06/18 05:41:14;;;;;;;11.93;10.93;;;18.60;1.00;;;;;;5118436;28;20576;-41
2023/06/18 05:43:39;;;;;;;12.00;10.90;;;18.80;1.00;;;;;;5118297;28;20520;-42
2023/06/18 05:46:05;;;;;;;12.27;11.20;;;19.00;1.00;;;;;;5118226;28;20218;-42
2023/06/18 05:48:31;;;;;;;13.83;11.77;;;19.10;1.00;;;;;;5118096;28;20192;-41
2023/06/18 05:50:56;;;;;;;12.17;11.17;;;19.40;1.00;;;;;;5118100;28;20179;-44
2023/06/18 05:53:22;;;;;;;12.67;11.57;;;19.50;1.00;;;;;;5118807;28;20191;-43
2023/06/18 05:55:47;;;;;;;13.17;12.03;;;19.80;1.00;;;;;;5117024;28;20253;-43
2023/06/18 05:58:13;;;;;;;13.20;11.90;;;20.00;1.00;;;;;;5118054;28;20188;-44
2023/06/18 06:00:38;;;;;;;12.40;11.30;;;20.20;1.00;;;;;;5117970;28;20244;-44
2023/06/18 06:03:04;;;;;;;11.47;10.53;;;20.40;1.00;;;;;;5118642;28;20322;-43
2023/06/18 06:05:39;;;;;;;11.57;10.67;;;20.60;1.00;;;;;;5117814;28;20172;-44
2023/06/18 06:08:06;;;;;;;12.97;11.77;;;20.70;1.00;;;;;;5098410;28;20198;-45
2023/06/18 06:10:44;;;;;;;13.33;12.23;;;20.80;1.00;;;;;;5116764;28;21045;-43
2023/06/18 06:13:10;;;;;;;12.37;11.27;;;20.80;1.00;;;;;;5116815;28;21001;-42
2023/06/18 06:15:36;;;;;;;11.23;10.23;;;20.90;1.00;;;;;;5115668;28;20570;-43
2023/06/18 06:18:02;;;;;;;12.83;11.60;;;21.00;1.00;;;;;;5115514;28;20834;-41
2023/06/18 06:20:27;;;;;;;12.07;11.07;;;21.00;1.00;;;;;;5116615;28;20275;-43
2023/06/18 06:22:53;;;;;;;10.60;9.70;;;21.00;1.00;;;;;;5117049;28;20231;-39
2023/06/18 06:25:19;;;;;;;10.23;9.33;;;21.10;1.00;;;;;;5117703;28;20183;-42
2023/06/18 06:27:44;;;;;;;11.93;10.97;;;21.30;1.00;;;;;;5100287;28;20569;-45
2023/06/18 06:30:10;;;;;;;11.03;10.10;;;21.50;1.00;;;;;;5117897;28;20175;-42
2023/06/18 06:32:36;;;;;;;11.70;10.67;;;21.70;1.00;;;;;;5118108;28;20205;-42
2023/06/18 06:35:02;;;;;;;11.50;10.40;;;21.90;1.00;;;;;;5117148;28;20562;-41
2023/06/18 06:37:29;;;;;;;11.07;10.17;;;22.20;1.00;;;;;;5099668;28;20188;-43
2023/06/18 06:39:55;;;;;;;10.90;9.83;;;22.30;1.00;;;;;;5108826;28;20525;-42
2023/06/18 06:42:21;;;;;;;12.07;10.63;;;22.40;1.00;;;;;;5079096;28;20756;-43
2023/06/18 06:44:47;;;;;;;11.30;10.40;;;22.50;1.00;;;;;;5089951;28;20548;-43
2023/06/18 06:47:13;;;;;;;10.27;9.43;;;22.60;1.00;;;;;;5118102;28;20451;-42
2023/06/18 06:49:38;;;;;;;10.47;9.67;;;22.80;1.00;;;;;;5083244;28;20283;-43
2023/06/18 06:52:04;;;;;;;10.80;9.87;;;23.00;1.00;;;;;;5115651;28;20928;-44
2023/06/18 06:54:30;;;;;;;10.47;9.60;;;23.10;1.00;;;;;;5116510;28;20284;-43
2023/06/18 06:56:55;;;;;;;10.10;9.20;;;23.40;1.00;;;;;;5095919;28;20234;-43
2023/06/18 06:59:21;;;;;;;9.57;8.77;;;23.70;1.00;;;;;;5110409;28;20437;-42
2023/06/18 07:01:46;;;;;;;10.57;9.50;;;23.90;1.00;;;;;;5115634;28;20564;-42
2023/06/18 07:04:13;;;;;;;11.33;8.90;;;24.10;1.00;;;;;;5115632;28;20184;-43
2023/06/18 07:06:39;;;;;;;9.70;8.90;;;24.30;1.00;;;;;;5116066;28;20184;-44
2023/06/18 07:09:05;;;;;;;10.50;9.70;;;24.50;1.00;;;;;;5117365;28;20428;-44
2023/06/18 07:11:33;;;;;;;10.00;9.27;;;24.70;1.00;;;;;;5117123;28;20172;-43
2023/06/18 07:13:59;;;;;;;9.90;9.20;;;25.00;1.00;;;;;;5116806;28;20434;-43
2023/06/18 07:16:24;;;;;;;10.70;9.80;;;25.30;1.00;;;;;;5116490;28;20469;-48
2023/06/18 07:18:50;;;;;;;9.70;8.80;;;25.40;1.00;;;;;;5116165;28;20451;-44
2023/06/18 07:21:17;;;;;;;10.17;8.97;;;25.60;1.00;;;;;;5115219;28;20183;-44
2023/06/18 07:23:42;;;;;;;10.50;9.50;;;25.60;1.00;;;;;;5096103;28;20183;-45
2023/06/18 07:26:08;;;;;;;10.77;9.67;;;25.80;1.00;;;;;;5079971;28;20430;-44
2023/06/18 07:28:33;;;;;;;9.30;8.50;;;25.80;1.00;;;;;;5114698;28;20190;-43
2023/06/18 07:30:59;;;;;;;10.00;9.00;;;25.90;1.00;;;;;;5113986;28;20232;-43
2023/06/18 07:33:25;;;;;;;10.00;9.10;;;26.20;1.00;;;;;;5114274;28;20192;-45
2023/06/18 07:35:50;;;;;;;10.43;9.63;;;26.40;1.00;;;;;;5110738;28;20322;-44
2023/06/18 07:38:16;;;;;;;8.70;8.00;;;26.80;1.00;;;;;;5099438;28;20219;-42
2023/06/18 07:40:42;;;;;;;9.50;8.70;;;26.90;1.00;;;;;;5093194;28;20228;-42
2023/06/18 07:43:09;;;;;;;9.97;9.07;;;26.80;1.00;;;;;;5075199;28;20176;-42
2023/06/18 07:45:35;;;;;;;10.10;9.10;;;26.70;1.00;;;;;;5093571;28;20442;-42
2023/06/18 07:48:01;;;;;;;10.50;9.60;;;26.70;1.00;;;;;;5093864;28;20835;-43
2023/06/18 07:50:27;;;;;;;9.27;8.50;;;26.60;1.00;;;;;;5092487;28;20426;-42
2023/06/18 07:52:52;;;;;;;10.17;9.27;;;26.60;1.00;;;;;;5093818;28;20434;-44
2023/06/18 07:55:18;;;;;;;10.00;9.20;;;26.60;1.00;;;;;;5095009;28;20468;-41
2023/06/18 07:57:44;;;;;;;9.37;8.67;;;26.70;1.00;;;;;;5095882;28;20185;-43
2023/06/18 08:00:10;;;;;;;10.77;9.87;;;26.90;1.00;;;;;;5095005;28;20252;-42
2023/06/18 08:02:35;;;;;;;10.50;9.43;;;27.20;1.00;;;;;;5094825;28;20182;-42
2023/06/18 08:05:01;;;;;;;10.10;9.20;;;27.20;1.00;;;;;;5094335;28;20529;-42
2023/06/18 08:07:27;;;;;;;9.57;8.77;;;27.20;1.00;;;;;;5094490;28;20199;-42
2023/06/18 08:09:52;;;;;;;11.07;10.17;;;27.10;1.00;;;;;;5077766;28;20227;-43
2023/06/18 08:12:18;;;;;;;9.77;8.83;;;27.10;99.90;;;;;;5098877;28;20255;-45
2023/06/18 08:14:47;;;;;;;9.70;8.80;;;27.10;99.90;;;;;;5098049;28;20187;-42
2023/06/18 08:17:16;;;;;;;10.27;9.50;;;27.20;99.90;;;;;;5098602;28;20665;-42
2023/06/18 08:19:44;;;;;;;11.90;11.00;;;27.30;99.90;;;;;;5098779;28;20430;-44
2023/06/18 08:22:11;;;;;;;10.37;9.50;;;27.40;1.00;;;;;;5099359;28;20417;-44
2023/06/18 08:24:37;;;;;;;10.90;9.90;;;27.80;1.00;;;;;;5097826;28;20445;-45
2023/06/18 08:27:02;;;;;;;10.70;9.80;;;27.90;1.00;;;;;;5098911;28;20886;-42
2023/06/18 08:29:28;;;;;;;10.67;9.77;;;28.00;99.90;;;;;;5098935;28;20185;-43
2023/06/18 08:31:54;;;;;;;9.07;8.37;;;28.10;99.90;;;;;;5097800;28;20539;-48
2023/06/18 08:34:20;;;;;;;11.27;10.37;;;28.10;1.00;;;;;;5099955;28;20271;-43
2023/06/18 08:36:47;;;;;;;10.13;9.43;;;28.10;99.90;;;;;;5098076;28;20212;-42
2023/06/18 08:39:14;;;;;;;10.30;9.50;;;28.10;99.90;;;;;;5098406;28;20475;-46
2023/06/18 08:41:42;;;;;;;10.80;10.00;;;28.20;99.90;;;;;;5098373;28;20414;-43
2023/06/18 08:44:08;;;;;;;11.17;10.07;;;28.30;99.90;;;;;;5079783;28;20413;-42
2023/06/18 08:46:35;;;;;;;9.90;9.10;;;28.00;99.90;;;;;;5077872;28;20434;-41
2023/06/18 08:49:02;;;;;;;10.43;9.70;;;27.90;99.90;;;;;;5095635;28;20177;-44
2023/06/18 08:51:28;;;;;;;11.33;9.93;;;28.00;99.90;;;;;;5096785;28;20427;-42
2023/06/18 08:54:13;;;;;;;10.57;9.70;;;28.10;99.90;;;;;;5096805;28;20407;-44
2023/06/18 08:57:05;;;;;;;10.57;9.73;;;28.20;99.90;;;;;;5096393;28;20855;-42
2023/06/18 08:59:31;;;;;;;11.70;10.67;;;28.70;99.90;;;;;;5083019;28;20430;-42
2023/06/18 09:01:57;;;;;;;9.77;9.07;;;29.10;99.90;;;;;;5079103;28;20528;-42
2023/06/18 09:04:22;;;;;;;10.23;9.33;;;29.50;99.90;;;;;;5098040;28;20434;-42
2023/06/18 09:06:48;;;;;;;9.57;8.77;;;29.60;99.90;;;;;;5098563;28;20335;-43
2023/06/18 09:09:14;;;;;;;9.17;8.47;;;29.50;99.90;;;;;;5097774;28;20678;-42
2023/06/18 09:11:39;;;;;;;10.30;9.43;;;29.60;99.90;;;;;;5098684;28;20168;-44
2023/06/18 09:14:05;;;;;;;11.00;9.90;;;29.60;99.90;;;;;;5099005;28;20188;-45
2023/06/18 09:16:31;;;;;;;10.33;9.43;;;30.20;99.90;;;;;;5063793;28;20250;-42
2023/06/18 09:18:57;;;;;;;10.77;9.97;;;30.90;99.90;;;;;;5079784;28;20491;-42
2023/06/18 09:21:42;;;;;;;9.90;9.13;;;31.10;99.90;;;;;;5096812;28;20199;-42
2023/06/18 09:24:19;;;;;;;10.63;9.73;;;31.30;99.90;;;;;;5077689;28;20246;-44
2023/06/18 09:26:45;;;;;;;10.50;9.50;;;31.60;99.90;;;;;;5097072;28;20384;-42
2023/06/18 09:29:12;;;;;;;10.10;9.20;;;31.80;99.90;;;;;;5096697;28;20849;-44
2023/06/18 09:31:44;;;;;;;11.33;10.33;;;31.80;99.90;;;;;;5077682;28;20881;-42
2023/06/18 09:34:19;;;;;;;9.83;9.00;;;31.50;99.90;;;;;;5096062;28;20751;-43
2023/06/18 09:36:47;;;;;;;9.60;8.80;;;31.40;99.90;;;;;;5061323;28;20477;-41
2023/06/18 09:39:22;;;;;;;10.53;9.73;;;31.10;99.90;;;;;;5096167;28;20434;-41
2023/06/18 09:41:50;;;;;;;9.50;8.80;;;31.20;99.90;;;;;;5060238;28;20537;-42
2023/06/18 09:44:17;;;;;;;9.77;8.97;;;31.30;99.90;;;;;;5097208;28;20401;-42
2023/06/18 09:47:03;;;;;;;9.50;8.80;;;31.10;99.90;;;;;;5103770;28;20438;-44
2023/06/18 09:49:29;;;;;;;10.63;9.83;;;31.00;99.90;;;;;;5115833;28;20400;-43
2023/06/18 09:51:54;;;;;;;8.77;8.13;;;31.40;99.90;;;;;;5117336;28;20819;-47
2023/06/18 09:54:21;;;;;;;9.50;8.60;;;31.50;99.90;;;;;;5116694;28;20417;-43
2023/06/18 09:57:00;;;;;;;9.70;8.77;;;31.70;99.90;;;;;;5118411;28;20203;-45
2023/06/18 09:59:27;;;;;;;10.10;9.40;;;32.10;99.90;;;;;;5100462;28;20407;-43
2023/06/18 10:01:54;;;;;;;10.47;9.67;;;32.50;99.90;;;;;;5117514;28;20400;-43
2023/06/18 10:04:20;;;;;;;14.00;9.60;;;32.60;99.90;;;;;;5097734;28;20433;-43
2023/06/18 10:07:18;;;;;;;9.97;9.27;;;32.60;99.90;;;;;;5116858;28;20438;-42
2023/06/18 10:09:46;;;;;;;10.50;9.00;;;32.50;99.90;;;;;;5092434;28;20416;-44
2023/06/18 10:12:17;;;;;;;9.83;9.10;;;32.10;99.90;;;;;;5113523;28;20414;-43
2023/06/18 10:14:43;;;;;;;9.83;9.13;;;31.90;99.90;;;;;;5097511;28;20399;-42
2023/06/18 10:17:12;;;;;;;8.40;7.80;;;32.50;99.90;;;;;;5113301;28;20924;-47
2023/06/18 10:19:49;;;;;;;9.20;8.60;;;33.20;99.90;;;;;;5093546;28;20215;-43
2023/06/18 10:22:15;;;;;;;9.90;9.07;;;33.90;99.90;;;;;;5096011;28;20416;-43
2023/06/18 10:25:05;;;;;;;10.03;9.23;;;34.40;99.90;;;;;;5094840;28;20468;-45
2023/06/18 10:27:31;;;;;;;9.87;9.07;;;35.00;99.90;;;;;;5113054;28;20436;-45
2023/06/18 10:29:58;;;;;;;8.27;7.67;;;35.00;99.90;;;;;;5113721;28;20656;-42
2023/06/18 10:32:24;;;;;;;8.93;8.03;;;35.00;99.90;;;;;;5114465;28;20582;-42
2023/06/18 10:34:51;;;;;;;9.17;8.37;;;35.20;99.90;;;;;;5115253;28;20528;-43
2023/06/18 10:37:17;;;;;;;8.90;8.20;;;35.10;99.90;;;;;;5097862;28;20436;-43
2023/06/18 10:39:44;;;;;;;9.07;8.37;;;34.60;99.90;;;;;;5116680;28;20478;-42
2023/06/18 10:42:15;;;;;;;8.97;8.33;;;34.50;99.90;;;;;;5116468;28;20449;-44
2023/06/18 10:44:54;;;;;;;8.73;8.17;;;34.90;99.90;;;;;;5116673;28;20689;-45
2023/06/18 10:47:31;;;;;;;9.33;8.63;;;34.60;99.90;;;;;;5116278;28;20416;-44
2023/06/18 10:50:03;;;;;;;9.50;8.80;;;34.10;99.90;;;;;;5115573;28;20408;-46
2023/06/18 10:52:32;;;;;;;9.17;8.47;;;34.20;99.90;;;;;;5115508;28;20381;-45
2023/06/18 10:55:19;;;;;;;8.03;7.43;;;34.80;99.90;;;;;;5115159;28;20491;-45
2023/06/18 10:58:04;;;;;;;8.67;7.97;;;35.30;99.90;;;;;;5116203;28;20402;-44
2023/06/18 11:00:40;;;;;;;9.53;8.83;;;35.50;99.90;;;;;;5115109;28;20417;-45
2023/06/18 11:03:12;;;;;;;8.97;8.27;;;35.90;99.90;;;;;;5114726;28;20408;-43
2023/06/18 11:05:45;;;;;;;9.00;8.40;;;36.00;99.90;;;;;;5114515;28;20820;-42
2023/06/18 11:08:13;;;;;;;9.20;8.50;;;34.60;99.90;;;;;;5116081;28;20456;-43
2023/06/18 11:10:49;;;;;;;10.17;9.37;;;34.10;99.90;;;;;;5082059;28;20981;-43
2023/06/18 11:13:16;;;;;;;8.40;7.80;;;34.30;99.90;;;;;;5098791;28;20772;-42
2023/06/18 11:15:53;;;;;;;9.30;8.60;;;35.10;99.90;;;;;;5114988;28;20563;-44
2023/06/18 11:18:21;;;;;;;9.70;9.00;;;36.00;99.90;;;;;;5113941;28;20413;-44
2023/06/18 11:20:47;;;;;;;10.17;9.40;;;36.20;99.90;;;;;;5115430;28;20410;-44
2023/06/18 11:23:14;;;;;;;8.80;8.10;;;36.50;1.00;;;;;;5098044;28;20432;-45
2023/06/18 11:25:41;;;;;;;10.20;9.50;;;37.00;99.90;;;;;;5115301;28;20512;-43
2023/06/18 11:28:08;;;;;;;10.20;9.40;;;36.60;99.90;;;;;;5115700;28;20425;-42
2023/06/18 11:30:33;;;;;;;9.20;8.40;;;36.20;99.90;;;;;;5096923;28;20448;-43
2023/06/18 11:32:59;;;;;;;9.60;8.90;;;35.70;99.90;;;;;;5096668;28;20414;-44
2023/06/18 11:35:30;;;;;;;9.50;8.80;;;34.90;99.90;;;;;;5115485;28;20328;-42
2023/06/18 11:37:55;;;;;;;9.10;8.50;;;34.80;99.90;;;;;;5093515;28;21000;-44
2023/06/18 11:40:22;;;;;;;8.90;8.20;;;35.20;99.90;;;;;;5094471;28;20466;-45
2023/06/18 11:42:51;;;;;;;10.60;9.80;;;35.00;99.90;;;;;;5077193;28;20172;-42
2023/06/18 11:45:17;;;;;;;10.63;9.67;;;34.60;99.90;;;;;;5095235;28;20393;-45
2023/06/18 11:47:50;;;;;;;10.13;9.33;;;34.70;99.90;;;;;;5096700;28;20491;-44
2023/06/18 11:50:17;;;;;;;10.17;9.43;;;34.20;99.90;;;;;;5096101;28;20408;-42
2023/06/18 11:52:43;;;;;;;9.87;9.13;;;33.70;99.90;;;;;;5093655;28;20400;-43
2023/06/18 11:55:10;;;;;;;10.30;9.40;;;33.70;99.90;;;;;;5059682;28;20677;-43
2023/06/18 11:57:35;;;;;;;9.90;9.10;;;34.20;99.90;;;;;;5076152;28;20841;-42
2023/06/18 12:00:08;;;;;;;9.40;8.70;;;35.00;99.90;;;;;;5093293;28;20410;-43
2023/06/18 12:02:34;;;;;;;9.00;8.30;;;35.40;99.90;;;;;;5093063;28;20177;-45
2023/06/18 12:05:03;;;;;;;9.13;8.53;;;35.70;99.90;;;;;;5093536;28;20418;-42
2023/06/18 12:07:30;;;;;;;9.37;8.67;;;36.60;99.90;;;;;;5094111;28;20785;-42
2023/06/18 12:10:01;;;;;;;9.50;8.60;;;37.20;99.90;;;;;;5095157;28;20418;-42
2023/06/18 12:12:53;;;;;;;9.57;8.87;;;36.50;99.90;;;;;;5078264;28;21009;-43
2023/06/18 12:15:43;;;;;;;9.60;8.90;;;36.40;99.90;;;;;;5060747;28;20799;-43
2023/06/18 12:18:24;;;;;;;8.27;7.77;;;36.40;99.90;;;;;;5095666;28;20430;-43
2023/06/18 12:20:50;;;;;;;8.70;8.10;;;36.80;99.90;;;;;;5095092;28;20449;-45
2023/06/18 12:23:17;;;;;;;8.50;7.90;;;36.50;99.90;;;;;;5076514;28;20397;-45
2023/06/18 12:25:46;;;;;;;9.10;8.40;;;36.80;99.90;;;;;;5094569;28;20469;-44
2023/06/18 12:28:13;;;;;;;8.60;8.00;;;37.30;99.90;;;;;;5076244;28;20525;-44
2023/06/18 12:30:39;;;;;;;8.43;7.83;;;37.40;99.90;;;;;;5077231;28;20422;-42
2023/06/18 12:33:13;;;;;;;8.17;7.67;;;37.90;99.90;;;;;;5095101;28;20402;-44
2023/06/18 12:35:45;;;;;;;8.90;8.17;;;38.20;99.90;;;;;;5094692;28;20556;-45
2023/06/18 12:38:10;;;;;;;8.10;7.50;;;38.20;99.90;;;;;;5093308;28;20461;-45
2023/06/18 12:40:51;;;;;;;9.03;8.23;;;38.20;1.00;;;;;;5093327;28;20934;-45